Time;durP1;ratioP1;P1;durP2;ratioP2;P2;SDS_P1;SDS_P2;PMS_P1;PMS_P2;Temp;Humidity;BMP_temperature;BMP_pressure;BME280_temperature;BME280_humidity;BME280_pressure;Samples;Min_cycle;Max_cycle;Signal;HPM_P1;HPM_P2
2024/02/19 08:10:27;;;;;;;42.10;37.83;;;11.10;81.30;;;;;;5023305;28;112460;-53
2024/02/19 08:12:53;;;;;;;40.40;36.20;;;12.10;76.30;;;;;;5003312;28;112705;-55
2024/02/19 08:15:19;;;;;;;40.58;36.20;;;12.30;76.60;;;;;;5003847;28;112662;-55
2024/02/19 08:17:45;;;;;;;41.78;37.63;;;12.30;76.20;;;;;;5002731;28;114389;-55
2024/02/19 08:20:11;;;;;;;39.97;35.80;;;12.40;75.60;;;;;;5002720;28;113476;-55
2024/02/19 08:22:36;;;;;;;42.13;37.95;;;12.60;75.60;;;;;;5004098;28;112549;-55
2024/02/19 08:25:02;;;;;;;40.97;36.60;;;12.70;74.60;;;;;;5004035;28;112878;-55
2024/02/19 08:27:28;;;;;;;41.03;36.90;;;12.90;75.00;;;;;;5002671;28;113802;-55
2024/02/19 08:29:53;;;;;;;39.67;35.78;;;13.10;74.40;;;;;;5002823;28;112738;-56
2024/02/19 08:32:19;;;;;;;37.55;33.75;;;13.30;73.60;;;;;;5003766;28;112639;-54
2024/02/19 08:34:45;;;;;;;36.05;32.67;;;13.50;72.70;;;;;;5003272;28;112823;-55
2024/02/19 08:37:10;;;;;;;36.80;32.92;;;13.70;72.40;;;;;;5002715;28;113232;-55
2024/02/19 08:39:36;;;;;;;35.35;31.88;;;13.90;71.80;;;;;;5002278;28;113982;-55
2024/02/19 08:42:02;;;;;;;37.13;31.75;;;14.10;70.20;;;;;;5003748;28;112926;-56
2024/02/19 08:44:27;;;;;;;34.80;31.45;;;14.20;70.30;;;;;;5003490;28;112732;-55
2024/02/19 08:46:53;;;;;;;34.90;31.30;;;14.10;69.90;;;;;;5002528;28;113129;-55
2024/02/19 08:49:19;;;;;;;36.50;32.75;;;14.30;70.30;;;;;;5002351;28;112815;-56
2024/02/19 08:51:44;;;;;;;35.45;31.83;;;14.40;68.90;;;;;;5003475;28;112668;-55
2024/02/19 08:54:10;;;;;;;36.55;32.92;;;14.60;69.50;;;;;;5003309;28;113098;-56
2024/02/19 08:56:36;;;;;;;35.05;31.75;;;14.90;67.80;;;;;;5002299;28;113143;-55
2024/02/19 08:59:03;;;;;;;36.25;32.63;;;15.10;67.00;;;;;;5001691;28;113707;-55
2024/02/19 09:01:29;;;;;;;35.58;32.08;;;15.10;66.60;;;;;;5003430;28;112462;-56
2024/02/19 09:03:55;;;;;;;35.30;31.90;;;15.10;67.30;;;;;;5001236;28;113408;-56
2024/02/19 09:06:21;;;;;;;35.75;32.28;;;15.50;65.70;;;;;;5002402;28;113201;-55
2024/02/19 09:08:46;;;;;;;35.45;31.92;;;15.40;65.70;;;;;;5001594;28;112666;-55
2024/02/19 09:11:12;;;;;;;35.05;31.75;;;15.40;65.40;;;;;;4990905;28;113007;-54
2024/02/19 09:13:38;;;;;;;35.10;31.38;;;15.60;65.40;;;;;;4989735;28;112714;-54
2024/02/19 09:16:04;;;;;;;33.80;30.63;;;15.70;64.10;;;;;;4988864;28;113166;-54
2024/02/19 09:18:30;;;;;;;33.58;30.23;;;16.00;63.70;;;;;;4988343;28;113650;-55
2024/02/19 09:20:55;;;;;;;33.00;29.65;;;16.20;63.20;;;;;;4989957;28;112528;-53
2024/02/19 09:23:21;;;;;;;32.17;29.27;;;16.60;62.40;;;;;;4989494;28;112736;-54
2024/02/19 09:25:47;;;;;;;30.17;27.17;;;17.00;62.30;;;;;;4988317;28;115260;-54
2024/02/19 09:28:12;;;;;;;31.63;28.52;;;17.30;59.70;;;;;;4988692;28;112692;-54
2024/02/19 09:30:38;;;;;;;30.42;27.55;;;17.40;60.30;;;;;;4989948;28;112668;-55
2024/02/19 09:33:04;;;;;;;24.17;21.80;;;17.90;59.90;;;;;;4989429;28;113050;-54
2024/02/19 09:35:29;;;;;;;25.42;22.17;;;18.00;57.80;;;;;;4988366;28;113572;-54
2024/02/19 09:37:55;;;;;;;26.63;23.85;;;18.90;54.40;;;;;;4987971;28;113997;-56
2024/02/19 09:40:21;;;;;;;26.55;24.15;;;21.60;48.90;;;;;;4989701;28;113000;-55
2024/02/19 09:42:48;;;;;;;23.85;21.55;;;24.60;44.20;;;;;;4988831;28;112641;-55
2024/02/19 09:45:14;;;;;;;25.50;23.10;;;26.90;37.30;;;;;;4988141;28;113238;-56
2024/02/19 09:47:44;;;;;;;23.42;21.23;;;28.50;35.60;;;;;;4988244;28;112798;-54
2024/02/19 09:50:11;;;;;;;26.30;23.52;;;30.50;33.40;;;;;;4989249;28;112641;-56
2024/02/19 09:52:38;;;;;;;22.20;20.30;;;31.20;32.00;;;;;;4988824;28;112753;-56
2024/02/19 09:55:06;;;;;;;19.73;17.83;;;31.70;31.30;;;;;;4987315;28;113137;-56
2024/02/19 09:57:32;;;;;;;18.90;17.30;;;31.10;30.10;;;;;;4988143;28;113628;-55
2024/02/19 10:00:03;;;;;;;16.95;15.43;;;30.60;31.40;;;;;;4989438;28;112840;-55
2024/02/19 10:02:29;;;;;;;19.17;17.48;;;30.90;30.50;;;;;;4988952;28;113073;-55
2024/02/19 10:04:54;;;;;;;21.20;19.45;;;32.00;30.10;;;;;;4987741;28;114468;-55
2024/02/19 10:07:21;;;;;;;22.50;20.52;;;33.10;29.10;;;;;;4987780;28;113115;-55
2024/02/19 10:09:50;;;;;;;21.42;19.65;;;33.20;28.00;;;;;;4988718;28;112651;-55
2024/02/19 10:12:19;;;;;;;21.38;19.67;;;33.50;29.00;;;;;;4989023;28;112913;-55
2024/02/19 10:14:45;;;;;;;18.30;17.00;;;32.90;28.50;;;;;;4987436;28;114522;-55
2024/02/19 10:17:11;;;;;;;18.55;17.05;;;34.10;26.90;;;;;;4987825;28;114268;-55
2024/02/19 10:19:38;;;;;;;18.08;16.48;;;34.10;26.80;;;;;;4988728;28;112975;-55
2024/02/19 10:22:04;;;;;;;20.35;18.70;;;35.80;25.90;;;;;;4986554;28;112714;-55
2024/02/19 10:24:31;;;;;;;20.67;19.08;;;35.90;25.80;;;;;;4987586;28;113224;-55
2024/02/19 10:26:57;;;;;;;19.35;17.95;;;35.70;25.70;;;;;;4987294;28;113648;-55
2024/02/19 10:29:26;;;;;;;16.13;14.90;;;37.30;24.20;;;;;;4987569;28;112842;-55
2024/02/19 10:31:52;;;;;;;13.60;12.60;;;37.10;24.20;;;;;;4988473;28;112711;-55
2024/02/19 10:34:17;;;;;;;12.88;11.98;;;35.60;24.90;;;;;;4984407;28;113220;-55
2024/02/19 10:36:47;;;;;;;14.90;13.65;;;36.20;24.30;;;;;;4986455;28;113372;-55
2024/02/19 10:39:13;;;;;;;12.20;11.25;;;36.90;24.20;;;;;;4986704;28;115176;-55
2024/02/19 10:41:39;;;;;;;11.80;10.90;;;37.20;23.10;;;;;;4986346;28;112690;-56
2024/02/19 10:44:07;;;;;;;12.98;11.98;;;37.50;23.60;;;;;;4984962;28;113259;-56
2024/02/19 10:46:33;;;;;;;13.80;12.63;;;36.20;24.10;;;;;;4986716;28;113767;-56
2024/02/19 10:48:59;;;;;;;13.82;12.73;;;34.60;25.30;;;;;;4986504;28;112733;-56
2024/02/19 10:51:25;;;;;;;13.43;12.40;;;35.40;24.80;;;;;;4988191;28;112730;-56
2024/02/19 10:53:59;;;;;;;12.25;11.25;;;35.60;24.80;;;;;;4987191;28;114531;-56
2024/02/19 10:56:32;;;;;;;13.60;12.60;;;35.80;24.00;;;;;;4987168;28;112927;-57
2024/02/19 10:58:59;;;;;;;12.75;11.65;;;34.10;25.40;;;;;;4988620;28;113010;-56
2024/02/19 11:01:41;;;;;;;12.88;11.85;;;36.00;24.80;;;;;;4988416;28;112620;-56
2024/02/19 11:04:16;;;;;;;11.95;11.07;;;37.90;23.20;;;;;;4987127;28;113201;-56
2024/02/19 11:06:57;;;;;;;11.55;10.65;;;38.00;22.60;;;;;;4980554;28;113691;-57
2024/02/19 11:09:33;;;;;;;12.48;11.43;;;37.20;23.60;;;;;;4988066;28;112611;-57
2024/02/19 11:12:00;;;;;;;11.20;10.27;;;38.80;21.70;;;;;;4986664;28;113127;-57
2024/02/19 11:14:36;;;;;;;11.00;10.25;;;39.70;20.90;;;;;;4986986;28;113803;-57
2024/02/19 11:17:02;;;;;;;11.40;10.50;;;38.30;21.90;;;;;;4987006;28;113015;-56
2024/02/19 11:19:29;;;;;;;10.57;9.77;;;38.90;22.10;;;;;;4987959;28;112748;-57
2024/02/19 11:22:07;;;;;;;12.40;11.30;;;37.70;22.80;;;;;;4989544;28;112894;-57
2024/02/19 11:24:33;;;;;;;11.70;10.90;;;37.50;22.60;;;;;;4982574;28;113483;-56
2024/02/19 11:26:59;;;;;;;12.30;11.40;;;37.40;22.70;;;;;;4986907;28;113925;-56
2024/02/19 11:29:25;;;;;;;10.63;9.90;;;39.80;21.40;;;;;;4987843;28;112763;-57
2024/02/19 11:32:02;;;;;;;9.55;8.82;;;39.40;21.30;;;;;;4988989;28;112714;-57
2024/02/19 11:34:28;;;;;;;10.10;9.40;;;38.90;21.40;;;;;;4987639;28;114398;-57
2024/02/19 11:37:08;;;;;;;10.98;10.13;;;37.30;22.10;;;;;;4988119;28;114547;-57
2024/02/19 11:39:34;;;;;;;11.10;10.20;;;32.30;26.40;;;;;;4987494;28;112621;-56
2024/02/19 11:42:04;;;;;;;12.20;11.25;;;33.30;26.10;;;;;;4987629;28;113118;-57
2024/02/19 11:44:31;;;;;;;13.65;12.60;;;32.60;26.20;;;;;;4986342;28;114547;-57
2024/02/19 11:46:58;;;;;;;12.80;11.90;;;32.70;26.70;;;;;;4986613;28;113063;-57
2024/02/19 11:49:24;;;;;;;12.13;11.23;;;32.90;26.60;;;;;;4987411;28;112721;-56
2024/02/19 11:51:51;;;;;;;12.93;11.88;;;33.50;26.10;;;;;;4988012;28;112993;-56
2024/02/19 11:54:17;;;;;;;20.77;19.17;;;30.40;28.60;;;;;;4984935;28;114694;-56
2024/02/19 11:56:51;;;;;;;19.50;17.80;;;27.80;31.60;;;;;;4986413;28;113590;-56
2024/02/19 11:59:18;;;;;;;18.02;16.70;;;27.70;32.00;;;;;;4987423;28;112654;-56
2024/02/19 12:01:44;;;;;;;18.20;16.70;;;26.60;33.20;;;;;;4986997;28;112716;-55
2024/02/19 12:04:11;;;;;;;15.30;14.10;;;27.00;33.60;;;;;;4985743;28;114940;-55
2024/02/19 12:06:37;;;;;;;17.98;16.25;;;27.30;32.90;;;;;;4984631;28;114452;-55
2024/02/19 12:09:04;;;;;;;20.13;18.52;;;25.80;34.20;;;;;;4985349;28;113242;-55
2024/02/19 12:11:31;;;;;;;20.83;19.15;;;25.40;35.80;;;;;;4985470;28;113750;-55
2024/02/19 12:13:57;;;;;;;21.17;19.52;;;24.70;36.60;;;;;;4984407;28;113146;-55
2024/02/19 12:16:25;;;;;;;20.90;19.23;;;23.60;38.30;;;;;;4985455;28;113343;-55
2024/02/19 12:18:51;;;;;;;22.60;20.60;;;23.60;39.10;;;;;;4985841;28;113946;-55
2024/02/19 12:21:17;;;;;;;19.83;18.23;;;22.50;40.20;;;;;;4987789;28;112679;-54
2024/02/19 12:23:46;;;;;;;19.77;18.08;;;22.40;40.60;;;;;;4986082;28;114405;-55
2024/02/19 12:26:11;;;;;;;19.30;17.50;;;22.80;40.40;;;;;;4985706;28;112798;-55
2024/02/19 12:28:37;;;;;;;18.42;16.83;;;23.10;40.30;;;;;;4987056;28;112891;-55
2024/02/19 12:31:03;;;;;;;16.60;15.10;;;22.70;41.30;;;;;;4987364;28;112893;-56
2024/02/19 12:33:28;;;;;;;15.88;14.45;;;22.30;40.90;;;;;;4986197;28;114271;-56
2024/02/19 12:35:55;;;;;;;16.17;14.68;;;21.50;41.70;;;;;;4986151;28;114436;-56
2024/02/19 12:38:20;;;;;;;16.63;15.13;;;20.40;44.20;;;;;;4986764;28;112583;-55
2024/02/19 12:40:46;;;;;;;18.35;16.67;;;19.90;45.10;;;;;;4986929;28;112664;-55
2024/02/19 12:43:12;;;;;;;17.25;15.65;;;19.60;45.70;;;;;;4985979;28;114437;-56
2024/02/19 12:45:38;;;;;;;16.30;14.90;;;19.30;46.10;;;;;;4987841;28;113323;-56
2024/02/19 12:48:05;;;;;;;16.02;14.63;;;19.30;46.20;;;;;;4990505;28;112995;-56
2024/02/19 12:50:32;;;;;;;16.02;14.60;;;19.30;47.10;;;;;;4976529;28;112808;-55
2024/02/19 12:53:00;;;;;;;16.08;14.52;;;19.30;45.80;;;;;;4989646;28;113181;-55
2024/02/19 12:55:26;;;;;;;15.45;14.05;;;19.50;46.80;;;;;;4987152;28;114962;-55
2024/02/19 12:57:52;;;;;;;16.05;14.60;;;19.60;45.40;;;;;;4990082;28;112545;-55
2024/02/19 13:00:17;;;;;;;14.48;13.18;;;19.50;45.80;;;;;;4989923;28;112679;-55
2024/02/19 13:02:43;;;;;;;15.45;13.60;;;20.20;46.40;;;;;;4989017;28;113298;-55
2024/02/19 13:05:09;;;;;;;17.02;15.43;;;20.90;44.40;;;;;;4988983;28;112983;-55
2024/02/19 13:07:35;;;;;;;16.73;15.23;;;21.40;43.20;;;;;;4989973;28;112604;-55
2024/02/19 13:10:01;;;;;;;16.98;15.50;;;21.50;43.00;;;;;;4989400;28;112707;-56
2024/02/19 13:12:26;;;;;;;16.60;15.20;;;22.00;42.30;;;;;;4988859;28;113256;-56
2024/02/19 13:14:53;;;;;;;16.08;14.43;;;22.70;41.60;;;;;;4989071;28;113320;-56
2024/02/19 13:17:19;;;;;;;16.27;14.90;;;23.40;40.80;;;;;;4989719;28;112571;-54
2024/02/19 13:19:48;;;;;;;16.67;15.27;;;25.00;37.90;;;;;;4989311;28;112725;-54
2024/02/19 13:22:14;;;;;;;18.52;16.90;;;25.20;37.90;;;;;;4988994;28;114452;-55
2024/02/19 13:24:41;;;;;;;18.65;17.00;;;23.40;39.40;;;;;;4987666;28;114414;-54
2024/02/19 13:27:06;;;;;;;19.15;17.35;;;22.70;42.20;;;;;;4989655;28;112917;-54
2024/02/19 13:29:33;;;;;;;20.33;18.42;;;21.70;43.50;;;;;;4988651;28;112792;-54
2024/02/19 13:31:59;;;;;;;18.45;16.75;;;21.10;44.70;;;;;;4988871;28;113525;-54
2024/02/19 13:34:25;;;;;;;18.85;17.10;;;20.80;45.60;;;;;;4987787;28;113934;-55
2024/02/19 13:36:50;;;;;;;18.33;16.60;;;20.80;45.50;;;;;;4988962;28;112555;-54
2024/02/19 13:39:20;;;;;;;20.05;18.05;;;20.80;46.00;;;;;;4989457;28;112716;-54
2024/02/19 13:41:47;;;;;;;20.08;18.15;;;20.80;46.30;;;;;;4988106;28;113490;-54
2024/02/19 13:44:13;;;;;;;20.00;18.17;;;20.20;47.80;;;;;;4988320;28;112753;-55
2024/02/19 13:46:42;;;;;;;19.40;17.70;;;20.10;48.20;;;;;;4989369;28;112757;-54
2024/02/19 13:49:09;;;;;;;18.92;17.23;;;19.90;47.40;;;;;;4989465;28;112731;-54
2024/02/19 13:51:34;;;;;;;19.38;17.65;;;19.40;47.80;;;;;;4987827;28;114267;-54
2024/02/19 13:54:00;;;;;;;18.38;16.73;;;19.50;47.50;;;;;;4988188;28;113878;-54
2024/02/19 13:56:27;;;;;;;19.17;17.33;;;19.40;47.80;;;;;;4988967;28;112867;-54
2024/02/19 13:58:53;;;;;;;18.52;16.80;;;19.40;47.80;;;;;;4989290;28;112909;-54
2024/02/19 14:01:19;;;;;;;18.88;17.05;;;19.20;48.10;;;;;;4988078;28;113904;-55
2024/02/19 14:03:47;;;;;;;19.73;17.65;;;19.20;48.30;;;;;;4987858;28;113746;-54
2024/02/19 14:06:16;;;;;;;18.83;16.92;;;19.30;48.30;;;;;;4988872;28;112935;-54
2024/02/19 14:08:42;;;;;;;18.48;16.85;;;20.00;47.00;;;;;;4988529;28;113031;-54
2024/02/19 14:11:08;;;;;;;17.83;16.20;;;21.70;44.10;;;;;;4987949;28;114844;-54
2024/02/19 14:13:34;;;;;;;17.60;16.00;;;25.30;38.50;;;;;;4986537;28;113658;-55
2024/02/19 14:16:00;;;;;;;17.65;16.08;;;26.90;36.00;;;;;;4988664;28;112513;-55
2024/02/19 14:18:26;;;;;;;17.65;16.15;;;25.60;36.60;;;;;;4988532;28;112897;-55
2024/02/19 14:20:52;;;;;;;17.20;15.60;;;23.30;40.60;;;;;;4987400;28;114453;-55
2024/02/19 14:23:17;;;;;;;18.58;16.92;;;22.50;42.80;;;;;;4988599;28;112842;-55
2024/02/19 14:25:43;;;;;;;17.50;15.90;;;22.60;42.60;;;;;;4988632;28;112768;-55
2024/02/19 14:28:10;;;;;;;17.85;16.38;;;24.40;39.20;;;;;;4988877;28;112962;-55
2024/02/19 14:30:36;;;;;;;20.30;18.38;;;28.90;32.70;;;;;;4987676;28;113239;-56
2024/02/19 14:33:02;;;;;;;18.13;16.73;;;30.40;30.20;;;;;;4987565;28;112674;-56
2024/02/19 14:35:28;;;;;;;17.60;16.27;;;31.10;29.70;;;;;;4988835;28;113040;-56
2024/02/19 14:37:54;;;;;;;17.63;16.23;;;30.30;31.00;;;;;;4988501;28;112970;-56
2024/02/19 14:40:20;;;;;;;17.52;16.25;;;32.30;28.20;;;;;;4985982;28;114581;-56
2024/02/19 14:42:47;;;;;;;16.88;15.68;;;33.00;27.90;;;;;;4987453;28;113745;-56
2024/02/19 14:45:14;;;;;;;21.70;19.80;;;33.40;27.40;;;;;;4988423;28;113481;-56
2024/02/19 14:47:42;;;;;;;21.55;19.80;;;33.40;28.80;;;;;;4987021;28;112838;-56
2024/02/19 14:50:09;;;;;;;21.63;19.83;;;32.30;30.00;;;;;;4987331;28;114665;-56
2024/02/19 14:52:38;;;;;;;21.05;19.35;;;31.40;31.00;;;;;;4987267;28;114527;-56
2024/02/19 14:55:09;;;;;;;20.90;19.13;;;30.30;32.40;;;;;;4988131;28;112788;-56
2024/02/19 14:57:40;;;;;;;21.92;20.02;;;29.90;32.80;;;;;;4988495;28;112787;-56
2024/02/19 15:00:10;;;;;;;21.92;20.13;;;29.10;33.60;;;;;;4986982;28;113224;-56
2024/02/19 15:02:39;;;;;;;22.48;20.75;;;29.90;32.70;;;;;;4987154;28;113249;-56
2024/02/19 15:05:13;;;;;;;20.55;19.02;;;29.90;32.30;;;;;;4988067;28;112827;-56
2024/02/19 15:07:41;;;;;;;20.67;19.13;;;30.20;31.30;;;;;;4986180;28;112861;-54
2024/02/19 15:10:07;;;;;;;21.23;19.52;;;29.20;33.20;;;;;;4986415;28;113182;-55
2024/02/19 15:12:35;;;;;;;21.83;20.02;;;28.60;33.50;;;;;;4986791;28;112971;-54
2024/02/19 15:15:02;;;;;;;22.23;20.52;;;28.10;34.70;;;;;;4987802;28;112632;-54
2024/02/19 15:17:27;;;;;;;27.00;24.50;;;27.10;36.60;;;;;;4987978;28;112843;-54
2024/02/19 15:19:53;;;;;;;24.85;22.70;;;26.30;36.90;;;;;;4986890;28;113706;-55
2024/02/19 15:22:19;;;;;;;24.00;21.92;;;25.90;37.50;;;;;;4987018;28;114195;-55
2024/02/19 15:24:45;;;;;;;23.27;21.17;;;26.40;37.10;;;;;;4987958;28;112650;-55
2024/02/19 15:27:11;;;;;;;52.92;47.33;;;26.80;36.00;;;;;;4987580;28;113215;-55
2024/02/19 15:29:38;;;;;;;31.80;28.90;;;25.40;38.10;;;;;;4986115;28;114580;-55
2024/02/19 15:32:04;;;;;;;25.00;22.65;;;25.80;37.80;;;;;;4986931;28;113085;-55
2024/02/19 15:34:30;;;;;;;23.67;21.52;;;24.90;39.10;;;;;;4987450;28;113160;-55
2024/02/19 15:36:55;;;;;;;24.88;22.98;;;25.00;39.40;;;;;;4987582;28;112971;-55
2024/02/19 15:39:22;;;;;;;25.17;23.17;;;24.60;39.70;;;;;;4986541;28;114528;-55
2024/02/19 15:41:49;;;;;;;25.08;22.88;;;23.30;41.50;;;;;;4986395;28;113779;-54
2024/02/19 15:44:14;;;;;;;25.48;23.40;;;22.90;42.60;;;;;;4987765;28;112569;-55
2024/02/19 15:46:40;;;;;;;25.02;22.95;;;23.60;41.30;;;;;;4987391;28;112823;-55
2024/02/19 15:49:07;;;;;;;25.02;22.83;;;23.90;41.10;;;;;;4986674;28;113251;-53
2024/02/19 15:51:33;;;;;;;24.58;22.38;;;23.90;40.90;;;;;;4986567;28;112706;-55
2024/02/19 15:53:59;;;;;;;25.80;23.30;;;22.70;43.50;;;;;;4987700;28;112565;-55
2024/02/19 15:56:25;;;;;;;24.35;21.95;;;21.60;45.60;;;;;;4987052;28;113069;-55
2024/02/19 15:58:52;;;;;;;24.77;22.45;;;20.80;47.90;;;;;;4986048;28;114342;-55
2024/02/19 16:01:18;;;;;;;25.02;22.45;;;20.80;48.40;;;;;;4986511;28;113027;-55
2024/02/19 16:03:49;;;;;;;23.85;21.45;;;20.10;49.70;;;;;;4987131;28;113204;-55
2024/02/19 16:06:15;;;;;;;23.23;20.92;;;19.60;50.70;;;;;;4987188;28;112696;-55
2024/02/19 16:08:41;;;;;;;23.67;20.80;;;19.30;51.40;;;;;;4986042;28;113371;-55
2024/02/19 16:11:10;;;;;;;21.85;19.77;;;19.10;51.80;;;;;;4986243;28;113016;-55
2024/02/19 16:13:40;;;;;;;23.00;20.70;;;18.90;52.30;;;;;;4986203;28;112659;-55
2024/02/19 16:16:07;;;;;;;24.50;21.95;;;18.40;53.30;;;;;;4985821;28;113431;-55
2024/02/19 16:18:34;;;;;;;24.55;22.15;;;18.10;54.30;;;;;;4985920;28;113219;-55
2024/02/19 16:21:03;;;;;;;24.25;21.88;;;17.50;55.80;;;;;;4988315;28;113025;-55
2024/02/19 16:23:32;;;;;;;28.23;24.88;;;17.40;56.50;;;;;;4990666;28;112498;-55
2024/02/19 16:25:59;;;;;;;50.72;45.25;;;17.20;56.70;;;;;;4990774;28;112695;-55
2024/02/19 16:28:28;;;;;;;41.55;37.25;;;17.00;57.00;;;;;;4989897;28;113176;-55
2024/02/19 16:30:53;;;;;;;33.55;30.05;;;16.70;58.00;;;;;;4989438;28;113718;-55
2024/02/19 16:33:19;;;;;;;35.15;31.27;;;16.40;59.20;;;;;;4989230;28;113008;-55
2024/02/19 16:35:45;;;;;;;31.17;28.00;;;16.20;60.70;;;;;;4990686;28;113105;-55
2024/02/19 16:38:11;;;;;;;32.55;27.13;;;16.10;60.40;;;;;;4989083;28;114526;-55
2024/02/19 16:40:37;;;;;;;30.90;27.73;;;15.90;60.40;;;;;;4989397;28;113024;-55
2024/02/19 16:43:05;;;;;;;30.65;27.65;;;15.80;61.00;;;;;;4990758;28;112807;-55
2024/02/19 16:45:33;;;;;;;32.45;29.05;;;15.60;62.40;;;;;;4990327;28;112691;-55
2024/02/19 16:47:59;;;;;;;31.02;27.83;;;15.40;62.80;;;;;;4994510;28;113172;-55
2024/02/19 16:50:25;;;;;;;32.70;29.20;;;15.40;62.50;;;;;;4989898;28;113930;-55
2024/02/19 16:52:51;;;;;;;31.17;27.70;;;15.40;63.00;;;;;;4990073;28;112885;-55
2024/02/19 16:55:17;;;;;;;31.95;28.65;;;15.20;64.00;;;;;;4990345;28;112701;-54
2024/02/19 16:57:44;;;;;;;33.75;30.08;;;15.00;64.90;;;;;;4988904;28;113624;-55
2024/02/19 17:00:10;;;;;;;31.40;28.25;;;14.90;66.00;;;;;;4989061;28;113012;-55
2024/02/19 17:02:37;;;;;;;29.70;26.60;;;14.80;66.10;;;;;;4988569;28;113289;-54
2024/02/19 17:05:03;;;;;;;33.78;27.92;;;14.80;65.20;;;;;;4988355;28;112668;-54
2024/02/19 17:07:32;;;;;;;33.22;29.30;;;14.80;65.20;;;;;;4989110;28;113124;-54
2024/02/19 17:10:01;;;;;;;33.63;30.15;;;14.80;64.80;;;;;;4988794;28;112561;-54
2024/02/19 17:12:30;;;;;;;33.63;30.17;;;14.70;64.40;;;;;;4989778;28;113130;-54
2024/02/19 17:14:56;;;;;;;35.60;31.90;;;14.70;65.10;;;;;;4991201;28;114103;-54
2024/02/19 17:17:22;;;;;;;35.92;32.03;;;14.50;66.20;;;;;;4986765;28;114858;-54
2024/02/19 17:19:48;;;;;;;37.67;33.83;;;14.40;66.80;;;;;;4987077;28;112933;-55
2024/02/19 17:22:15;;;;;;;38.60;34.58;;;14.30;67.90;;;;;;4989146;28;112976;-54
2024/02/19 17:24:41;;;;;;;37.78;33.72;;;14.10;69.00;;;;;;4988962;28;112660;-54
2024/02/19 17:27:08;;;;;;;37.92;33.85;;;13.90;69.70;;;;;;4987770;28;114641;-54
2024/02/19 17:29:34;;;;;;;42.10;35.03;;;13.80;70.40;;;;;;4988024;28;115618;-54
2024/02/19 17:32:00;;;;;;;40.25;35.70;;;13.80;70.30;;;;;;4989554;28;112711;-54
2024/02/19 17:34:26;;;;;;;43.05;34.30;;;13.70;70.50;;;;;;4989774;28;112833;-54
2024/02/19 17:36:52;;;;;;;37.20;33.22;;;13.70;70.30;;;;;;4988597;28;113270;-54
2024/02/19 17:39:23;;;;;;;40.30;35.55;;;13.60;70.80;;;;;;4988980;28;112741;-54
2024/02/19 17:41:49;;;;;;;43.28;38.40;;;13.50;70.40;;;;;;4989872;28;112678;-54
2024/02/19 17:44:15;;;;;;;45.45;40.75;;;13.50;70.50;;;;;;4989788;28;112689;-54
2024/02/19 17:46:41;;;;;;;44.10;39.45;;;13.50;70.30;;;;;;4987264;28;113323;-54
2024/02/19 17:49:10;;;;;;;42.42;35.47;;;13.40;71.40;;;;;;4988340;28;112705;-54
2024/02/19 17:51:37;;;;;;;48.35;40.72;;;13.30;72.00;;;;;;4989304;28;112806;-54
2024/02/19 17:54:03;;;;;;;62.25;49.40;;;13.20;72.40;;;;;;4988577;28;113029;-54
2024/02/19 17:56:29;;;;;;;65.63;52.65;;;13.20;72.60;;;;;;4988625;28;113720;-54
2024/02/19 17:58:55;;;;;;;65.57;57.95;;;13.10;72.50;;;;;;4988444;28;112691;-54
2024/02/19 18:01:24;;;;;;;69.10;61.75;;;13.20;71.20;;;;;;4989347;28;112743;-54
2024/02/19 18:03:53;;;;;;;78.65;69.80;;;13.20;70.40;;;;;;4989171;28;112716;-54
2024/02/19 18:06:20;;;;;;;82.47;73.68;;;13.30;70.30;;;;;;4987061;28;114556;-54
2024/02/19 18:08:49;;;;;;;77.68;69.20;;;13.20;70.10;;;;;;4987858;28;112709;-54
2024/02/19 18:11:15;;;;;;;79.32;70.63;;;13.20;70.20;;;;;;4989282;28;112959;-54
2024/02/19 18:13:41;;;;;;;118.25;92.88;;;13.10;71.00;;;;;;4989485;28;113051;-54
2024/02/19 18:16:07;;;;;;;136.73;99.53;;;13.10;71.10;;;;;;4988070;28;114511;-54
2024/02/19 18:18:33;;;;;;;165.60;113.85;;;13.00;70.90;;;;;;4986889;28;115287;-54
2024/02/19 18:20:59;;;;;;;98.63;74.65;;;13.00;70.90;;;;;;4987982;28;112960;-54
2024/02/19 18:23:26;;;;;;;63.47;53.53;;;12.90;71.20;;;;;;4989511;28;112677;-54
2024/02/19 18:25:56;;;;;;;68.88;53.67;;;12.90;71.70;;;;;;4988295;28;113859;-54
2024/02/19 18:28:22;;;;;;;55.30;45.45;;;12.80;72.10;;;;;;4987693;28;112906;-54
2024/02/19 18:30:48;;;;;;;64.63;53.97;;;12.80;71.90;;;;;;4988888;28;112676;-54
2024/02/19 18:33:15;;;;;;;75.70;60.65;;;12.60;73.00;;;;;;4988982;28;112855;-55
2024/02/19 18:35:42;;;;;;;71.93;60.35;;;12.50;73.50;;;;;;4987813;28;114554;-54
2024/02/19 18:38:08;;;;;;;67.35;56.95;;;12.50;73.10;;;;;;4987689;28;112957;-54
2024/02/19 18:40:34;;;;;;;62.35;52.72;;;12.40;72.90;;;;;;4989050;28;113111;-54
2024/02/19 18:43:00;;;;;;;49.38;42.80;;;12.30;73.50;;;;;;4987982;28;112658;-54
2024/02/19 18:45:26;;;;;;;47.03;39.78;;;12.10;74.30;;;;;;4987403;28;114342;-54
2024/02/19 18:47:52;;;;;;;42.22;37.55;;;12.10;74.10;;;;;;4987503;28;113669;-54
2024/02/19 18:50:18;;;;;;;44.40;39.50;;;12.20;74.00;;;;;;4988657;28;112483;-54
2024/02/19 18:52:45;;;;;;;54.53;45.45;;;12.20;73.80;;;;;;4988833;28;112731;-54
2024/02/19 18:55:11;;;;;;;69.93;57.78;;;12.10;74.60;;;;;;4987208;28;115364;-54
2024/02/19 18:57:36;;;;;;;65.85;55.42;;;12.00;74.50;;;;;;4987687;28;113012;-54
2024/02/19 19:00:08;;;;;;;72.25;60.15;;;12.00;74.30;;;;;;4988448;28;112550;-54
2024/02/19 19:02:38;;;;;;;67.15;58.47;;;12.10;74.30;;;;;;4988780;28;112808;-54
2024/02/19 19:05:04;;;;;;;67.03;56.13;;;12.10;73.90;;;;;;4987531;28;113239;-54
2024/02/19 19:07:34;;;;;;;57.13;49.83;;;12.00;74.20;;;;;;4987300;28;112596;-54
2024/02/19 19:10:00;;;;;;;58.20;49.28;;;12.00;74.20;;;;;;4988020;28;112729;-54
2024/02/19 19:12:26;;;;;;;63.88;53.60;;;11.90;74.30;;;;;;4988148;28;113095;-54
2024/02/19 19:14:51;;;;;;;62.15;52.28;;;11.90;74.30;;;;;;4987173;28;113438;-54
2024/02/19 19:17:17;;;;;;;56.80;49.28;;;11.90;74.40;;;;;;4987423;28;113064;-53
2024/02/19 19:19:43;;;;;;;65.28;53.28;;;11.80;74.50;;;;;;4988555;28;112689;-53
2024/02/19 19:22:10;;;;;;;58.78;47.67;;;11.80;74.20;;;;;;4988816;28;113046;-53
2024/02/19 19:24:36;;;;;;;53.22;45.50;;;11.90;74.00;;;;;;4987184;28;113305;-54
2024/02/19 19:27:04;;;;;;;55.35;48.63;;;11.80;73.70;;;;;;4986563;28;113886;-54
2024/02/19 19:29:32;;;;;;;71.93;55.05;;;11.80;74.10;;;;;;4987823;28;112893;-54
2024/02/19 19:31:58;;;;;;;131.90;89.75;;;11.80;74.20;;;;;;4988190;28;112793;-53
2024/02/19 19:34:24;;;;;;;79.93;67.45;;;11.70;74.60;;;;;;4987075;28;113679;-54
2024/02/19 19:36:50;;;;;;;82.60;70.95;;;11.60;74.70;;;;;;4986923;28;112799;-54
2024/02/19 19:39:16;;;;;;;70.75;61.85;;;11.60;75.10;;;;;;4988077;28;112940;-54
2024/02/19 19:41:41;;;;;;;78.63;66.72;;;11.60;75.30;;;;;;4987592;28;112833;-53
2024/02/19 19:44:10;;;;;;;88.25;78.60;;;11.60;75.20;;;;;;4986783;28;114564;-53
2024/02/19 19:46:38;;;;;;;64.28;54.83;;;11.60;75.20;;;;;;4986588;28;113062;-54
2024/02/19 19:49:07;;;;;;;58.42;51.97;;;11.60;75.10;;;;;;4987865;28;112467;-54
2024/02/19 19:51:32;;;;;;;51.85;46.33;;;11.50;75.60;;;;;;4987498;28;112815;-53
2024/02/19 19:53:58;;;;;;;58.45;52.08;;;11.60;75.40;;;;;;4986357;28;114331;-54
2024/02/19 19:56:24;;;;;;;52.80;46.55;;;11.50;75.70;;;;;;4986957;28;112803;-54
2024/02/19 19:58:53;;;;;;;54.85;46.65;;;11.40;75.70;;;;;;4987385;28;112592;-54
2024/02/19 20:01:19;;;;;;;51.33;45.85;;;11.50;75.60;;;;;;4987682;28;112701;-54
2024/02/19 20:03:45;;;;;;;52.97;47.35;;;11.50;75.40;;;;;;4985048;28;114680;-54
2024/02/19 20:06:11;;;;;;;54.65;47.20;;;11.40;75.70;;;;;;4986736;28;114092;-54
2024/02/19 20:08:37;;;;;;;52.78;47.13;;;11.40;76.10;;;;;;4986907;28;112579;-54
2024/02/19 20:11:03;;;;;;;54.00;45.72;;;11.40;76.20;;;;;;4987517;28;113149;-53
2024/02/19 20:13:29;;;;;;;52.20;46.63;;;11.40;75.90;;;;;;4986600;28;113206;-54
2024/02/19 20:15:55;;;;;;;50.78;45.53;;;11.40;76.30;;;;;;4986398;28;112908;-53
2024/02/19 20:18:23;;;;;;;54.20;46.55;;;11.20;76.70;;;;;;4987555;28;112546;-54
2024/02/19 20:20:50;;;;;;;52.38;46.67;;;11.00;77.40;;;;;;4987391;28;112927;-53
2024/02/19 20:23:18;;;;;;;51.75;46.22;;;10.90;77.70;;;;;;4986665;28;113290;-54
2024/02/19 20:25:44;;;;;;;55.13;45.15;;;10.80;78.00;;;;;;4986285;28;113056;-53